Destinations Rørvik Airport Ryum

Rørvik Airport Ryum (ENRM / RVK)

Flights to Rørvik Airport Ryum

Flight number From ETE Dispatch
SPY-3111 ENNM Namsos Høknesøra Airport 00:20

Flights from Rørvik Airport Ryum

Flight number To ETE Dispatch
SPY-3112 ENNM Namsos Høknesøra Airport 00:20
About

Rørvik Airport Ryum facts

Rørvik Airport Ryum is located in Rørvik at an elevation of 4.3 meters or 14 feet.

Currently, Speedy Airlines serves 2 flights to and from Rørvik Airport Ryum.

Detailed airport info

Route map

Weather

Current weather

METAR

METAR

Metar data retrieved Sunday, 21 July 2024 at 18:55 UTC

ENRM 211820Z 12011G21KT 080V150 CAVOK 26/14 Q1005
Wind Temperature
11/21 kt 26c